Time;durP1;ratioP1;P1;durP2;ratioP2;P2;SDS_P1;SDS_P2;PMS_P1;PMS_P2;Temp;Humidity;BMP_temperature;BMP_pressure;BME280_temperature;BME280_humidity;BME280_pressure;Samples;Min_cycle;Max_cycle;Signal;HPM_P1;HPM_P2
2021/10/01 00:01:54;;;;;;;4.97;1.23;;;;;;;15.71;52.63;101868.06;4957679;28;113024;-63
2021/10/01 00:04:23;;;;;;;5.38;0.98;;;;;;;15.70;52.47;101860.97;4973922;28;124030;-63
2021/10/01 00:06:51;;;;;;;3.92;0.75;;;;;;;15.69;52.48;101853.91;4974292;28;124296;-65
2021/10/01 00:09:18;;;;;;;1.92;0.80;;;;;;;15.67;52.42;101844.22;4972463;28;114264;-63
2021/10/01 00:11:52;;;;;;;2.22;0.70;;;;;;;15.64;52.51;101844.41;4973809;28;113769;-63
2021/10/01 00:14:24;;;;;;;2.90;0.90;;;;;;;15.61;52.53;101840.06;4973167;28;124863;-63
2021/10/01 00:16:53;;;;;;;2.88;0.95;;;;;;;15.59;52.62;101841.94;4973663;28;123882;-63
2021/10/01 00:19:21;;;;;;;2.28;0.90;;;;;;;15.59;52.55;101836.63;4970793;28;114239;-64
2021/10/01 00:21:48;;;;;;;4.15;1.33;;;;;;;15.57;52.65;101833.16;4972472;28;114763;-65
2021/10/01 00:24:15;;;;;;;3.58;0.88;;;;;;;15.57;52.56;101833.16;4969934;28;124439;-65
2021/10/01 00:26:43;;;;;;;2.42;1.17;;;;;;;15.56;52.52;101832.31;4967978;28;124348;-65
2021/10/01 00:29:11;;;;;;;3.33;1.08;;;;;;;15.55;52.59;101840.38;4954594;28;115851;-64
2021/10/01 00:31:39;;;;;;;2.65;0.70;;;;;;;15.54;52.47;101833.34;4974520;28;114893;-64
2021/10/01 00:34:08;;;;;;;2.47;0.90;;;;;;;15.52;52.63;101829.84;4956494;28;123054;-64
2021/10/01 00:36:35;;;;;;;1.60;0.65;;;;;;;15.49;52.61;101825.53;4973447;28;123720;-64
2021/10/01 00:39:05;;;;;;;2.97;0.70;;;;;;;15.45;52.51;101818.63;4972365;28;114483;-64
2021/10/01 00:41:33;;;;;;;1.90;0.80;;;;;;;15.44;52.51;101821.38;4962668;28;112821;-64
2021/10/01 00:44:00;;;;;;;3.10;1.02;;;;;;;15.40;52.62;101817.13;4959651;28;123150;-64
2021/10/01 00:46:28;;;;;;;1.60;0.70;;;;;;;15.36;52.52;101814.59;4956050;28;122984;-64
2021/10/01 00:48:56;;;;;;;3.60;0.95;;;;;;;15.34;52.59;101816.47;4956302;28;113280;-64
2021/10/01 00:51:25;;;;;;;3.85;1.42;;;;;;;15.31;52.74;101808.63;4964461;28;114051;-64
2021/10/01 00:53:54;;;;;;;1.30;0.70;;;;;;;15.27;52.76;101809.72;4972283;28;124472;-64
2021/10/01 00:56:22;;;;;;;4.25;0.77;;;;;;;15.26;52.66;101805.31;4956212;28;122937;-64
2021/10/01 00:58:50;;;;;;;3.13;0.88;;;;;;;15.24;52.78;101809.88;4955246;28;113057;-64
2021/10/01 01:01:17;;;;;;;3.15;0.90;;;;;;;15.22;52.77;101800.19;4972313;28;114285;-64
2021/10/01 01:03:49;;;;;;;3.00;0.90;;;;;;;15.21;52.83;101801.16;4955476;28;123244;-64
2021/10/01 01:06:28;;;;;;;2.83;0.80;;;;;;;15.19;52.76;101801.22;4955924;28;123197;-65
2021/10/01 01:09:17;;;;;;;1.90;0.90;;;;;;;15.17;52.71;101797.78;4955440;28;113443;-65
2021/10/01 01:11:56;;;;;;;3.05;0.88;;;;;;;15.14;53.01;101781.91;4956428;28;113398;-64
2021/10/01 01:14:33;;;;;;;2.65;1.00;;;;;;;15.11;52.81;101787.41;4955231;28;122934;-65
2021/10/01 01:17:03;;;;;;;4.50;1.20;;;;;;;15.10;52.81;101780.31;4955135;28;122993;-64
2021/10/01 01:19:52;;;;;;;3.10;0.98;;;;;;;15.07;52.98;101786.69;4943440;28;114566;-64
2021/10/01 01:22:37;;;;;;;4.25;0.90;;;;;;;15.07;52.93;101780.47;4949676;28;113945;-64
2021/10/01 01:26:08;;;;;;;2.35;0.68;;;;;;;15.04;52.95;101775.31;4947858;28;123295;-64
2021/10/01 01:28:47;;;;;;;2.17;0.90;;;;;;;15.05;52.95;101787.69;4863061;28;122838;-64
2021/10/01 01:31:44;;;;;;;4.30;1.10;;;;;;;15.06;53.20;101784.09;4955448;28;113544;-64
2021/10/01 01:34:21;;;;;;;2.25;0.90;;;;;;;15.08;53.10;101792.88;4942862;28;112915;-64
2021/10/01 01:36:58;;;;;;;4.13;0.80;;;;;;;15.09;53.18;101778.63;4949801;28;123515;-64
2021/10/01 01:39:28;;;;;;;4.00;0.90;;;;;;;15.11;53.22;101779.41;4945687;28;123537;-64
2021/10/01 01:41:58;;;;;;;3.33;1.00;;;;;;;15.13;53.16;101774.84;4949569;28;113682;-64
2021/10/01 01:44:27;;;;;;;3.58;0.95;;;;;;;15.14;53.14;101765.88;4955170;28;113107;-64
2021/10/01 01:46:57;;;;;;;2.75;0.88;;;;;;;15.15;53.11;101772.97;4936461;28;123435;-64
2021/10/01 01:49:27;;;;;;;2.63;1.10;;;;;;;15.17;53.04;101765.75;4966649;28;122688;-64
2021/10/01 01:51:57;;;;;;;3.88;0.90;;;;;;;15.17;53.14;101757.75;4953833;28;113987;-64
2021/10/01 01:54:25;;;;;;;3.13;1.00;;;;;;;15.20;53.13;101762.94;4972404;28;114065;-64
2021/10/01 01:56:54;;;;;;;3.28;0.88;;;;;;;15.23;53.13;101762.78;4954922;28;123119;-64
2021/10/01 01:59:22;;;;;;;2.75;0.90;;;;;;;15.25;52.98;101758.22;4944335;28;123093;-65
2021/10/01 02:01:50;;;;;;;2.47;0.82;;;;;;;15.28;53.10;101757.22;4971464;28;113858;-64
2021/10/01 02:04:23;;;;;;;2.38;0.80;;;;;;;15.30;53.04;101750.00;4955824;28;113268;-63
2021/10/01 02:06:53;;;;;;;2.83;0.93;;;;;;;15.31;52.87;101752.59;4954283;28;124357;-65
2021/10/01 02:09:22;;;;;;;5.55;1.48;;;;;;;15.33;52.82;101740.03;4954328;28;122950;-63
2021/10/01 02:11:49;;;;;;;3.05;1.20;;;;;;;15.34;52.92;101744.41;4953649;28;115020;-63
2021/10/01 02:14:24;;;;;;;2.47;0.70;;;;;;;15.36;52.86;101739.84;4954950;28;113968;-63
2021/10/01 02:16:55;;;;;;;1.48;0.80;;;;;;;15.37;52.77;101736.25;4954841;28;123029;-63
2021/10/01 02:19:25;;;;;;;1.73;0.90;;;;;;;15.40;52.76;101729.03;4937497;28;123100;-63
2021/10/01 02:21:53;;;;;;;4.53;1.00;;;;;;;15.40;52.81;101729.88;4953991;28;113352;-63
2021/10/01 02:24:23;;;;;;;3.55;1.10;;;;;;;15.42;52.79;101721.81;4963370;28;113949;-63
2021/10/01 02:27:12;;;;;;;2.30;1.10;;;;;;;15.44;52.81;101726.13;4949843;28;123892;-63
2021/10/01 02:29:51;;;;;;;2.25;0.80;;;;;;;15.45;52.71;101714.50;4946767;28;123103;-63
2021/10/01 02:32:33;;;;;;;3.47;0.80;;;;;;;15.46;52.77;101713.53;4954475;28;113400;-63
2021/10/01 02:35:02;;;;;;;2.45;0.90;;;;;;;15.49;52.56;101712.53;4969787;28;114379;-63
2021/10/01 02:37:29;;;;;;;3.88;0.90;;;;;;;15.50;52.62;101716.91;4947325;28;123283;-63
2021/10/01 02:39:57;;;;;;;3.05;1.15;;;;;;;15.51;52.68;101711.50;4950253;28;123329;-63
2021/10/01 02:42:25;;;;;;;3.03;0.95;;;;;;;15.53;52.57;101714.09;4965514;28;113383;-63
2021/10/01 02:44:56;;;;;;;2.45;1.00;;;;;;;15.52;52.54;101707.03;4960568;28;113142;-63
2021/10/01 02:47:30;;;;;;;3.42;1.10;;;;;;;15.52;52.48;101712.38;4953927;28;123294;-63
2021/10/01 02:50:00;;;;;;;3.30;0.95;;;;;;;15.53;52.37;101693.59;4947135;28;125985;-63
2021/10/01 02:52:44;;;;;;;2.38;1.10;;;;;;;15.53;52.53;101692.75;4954748;28;113427;-63
2021/10/01 02:55:37;;;;;;;2.72;1.00;;;;;;;15.52;52.51;101688.34;4953772;28;113834;-63
2021/10/01 02:58:20;;;;;;;;;;;;;;;15.49;52.43;101686.69;4951798;28;122994;-63
2021/10/01 03:00:50;;;;;;;3.00;0.85;;;;;;;15.50;52.39;101680.44;4954157;28;123348;-63
2021/10/01 03:03:22;;;;;;;3.20;0.93;;;;;;;15.48;52.18;101686.78;4953616;28;115028;-63
2021/10/01 03:05:57;;;;;;;2.03;1.10;;;;;;;15.47;52.45;101683.25;4953597;28;114337;-63
2021/10/01 03:08:28;;;;;;;2.38;1.13;;;;;;;15.47;52.47;101679.72;4953007;28;123699;-63
2021/10/01 03:10:57;;;;;;;3.97;1.35;;;;;;;15.46;52.49;101675.31;4953923;28;123663;-63
2021/10/01 03:13:26;;;;;;;4.22;1.23;;;;;;;15.45;52.51;101673.59;4950853;28;113820;-63
2021/10/01 03:15:57;;;;;;;2.33;0.93;;;;;;;15.44;52.58;101671.88;4961410;28;113278;-64
2021/10/01 03:18:28;;;;;;;4.93;1.10;;;;;;;15.43;52.40;101665.66;4952850;28;123690;-63
2021/10/01 03:20:56;;;;;;;3.28;1.00;;;;;;;15.43;52.57;101667.50;4969394;28;124593;-63
2021/10/01 03:23:23;;;;;;;2.47;0.93;;;;;;;15.43;52.48;101670.16;4953846;28;113784;-63
2021/10/01 03:25:53;;;;;;;2.83;0.85;;;;;;;15.44;52.58;101661.19;4952856;28;114179;-63
2021/10/01 03:28:21;;;;;;;6.78;1.20;;;;;;;15.43;52.52;101664.81;4953001;28;123783;-63
2021/10/01 03:30:49;;;;;;;5.00;1.00;;;;;;;15.44;52.43;101653.19;4953848;28;123525;-63
2021/10/01 03:33:17;;;;;;;1.80;0.90;;;;;;;15.44;52.65;101650.50;4952672;28;113848;-64
2021/10/01 03:35:46;;;;;;;2.92;0.90;;;;;;;15.45;52.46;101646.91;4965192;28;114357;-63
2021/10/01 03:38:14;;;;;;;2.88;0.85;;;;;;;15.45;52.40;101630.91;4953094;28;123960;-63
2021/10/01 03:40:46;;;;;;;5.38;1.08;;;;;;;15.44;52.39;101639.84;4965250;28;123101;-64
2021/10/01 03:43:14;;;;;;;2.20;0.80;;;;;;;15.45;52.38;101636.22;4969523;28;114343;-63
2021/10/01 03:45:43;;;;;;;2.25;0.93;;;;;;;15.44;52.36;101629.16;4953450;28;113184;-63
2021/10/01 03:48:10;;;;;;;1.42;0.75;;;;;;;15.45;52.40;101630.91;4953744;28;122856;-63
2021/10/01 03:50:59;;;;;;;3.05;0.90;;;;;;;15.46;52.51;101628.13;4939369;28;123382;-64
2021/10/01 03:53:27;;;;;;;3.45;1.10;;;;;;;15.48;52.46;101614.69;4937199;28;114483;-63
2021/10/01 03:55:54;;;;;;;3.03;0.90;;;;;;;15.49;52.22;101613.75;4950467;28;114073;-63
2021/10/01 03:58:21;;;;;;;4.97;1.10;;;;;;;15.48;52.19;101614.69;4952544;28;123190;-63
2021/10/01 04:00:51;;;;;;;2.08;0.80;;;;;;;15.48;52.35;101620.03;4952923;28;123358;-63
2021/10/01 04:03:19;;;;;;;3.28;0.93;;;;;;;15.48;52.14;101604.00;4953701;28;113918;-63
2021/10/01 04:05:53;;;;;;;1.95;1.00;;;;;;;15.49;52.14;101611.09;4953686;28;113099;-64
2021/10/01 04:08:21;;;;;;;4.85;1.02;;;;;;;15.51;52.30;101609.19;4952092;28;123170;-63
2021/10/01 04:10:49;;;;;;;2.80;1.00;;;;;;;15.53;52.21;101601.97;4953208;28;123307;-64
2021/10/01 04:13:17;;;;;;;4.90;0.93;;;;;;;15.54;52.25;101598.38;4953328;28;113837;-64
2021/10/01 04:15:51;;;;;;;2.72;1.02;;;;;;;15.55;52.17;101590.25;4972063;28;114176;-64
2021/10/01 04:18:22;;;;;;;3.85;1.15;;;;;;;15.56;52.21;101585.78;4955800;28;123259;-64
2021/10/01 04:20:49;;;;;;;3.67;0.80;;;;;;;15.56;52.05;101581.31;4956634;28;123113;-63
2021/10/01 04:23:17;;;;;;;4.95;1.00;;;;;;;15.57;51.99;101574.16;4971655;28;114801;-63
2021/10/01 04:25:47;;;;;;;1.92;0.77;;;;;;;15.56;51.96;101575.13;4974618;28;114442;-64
2021/10/01 04:28:19;;;;;;;2.95;1.00;;;;;;;15.57;51.70;101566.13;4956203;28;123616;-70
2021/10/01 04:30:51;;;;;;;3.85;0.90;;;;;;;15.58;52.00;101563.41;4956565;28;125044;-64
2021/10/01 04:33:23;;;;;;;3.15;0.90;;;;;;;15.59;51.82;101566.91;4956446;28;113471;-64
2021/10/01 04:35:52;;;;;;;5.38;1.00;;;;;;;15.59;51.96;101564.25;4957069;28;113023;-64
2021/10/01 04:38:21;;;;;;;3.75;1.10;;;;;;;15.59;51.85;101564.25;4951754;28;123730;-64
2021/10/01 04:40:49;;;;;;;3.90;1.00;;;;;;;15.58;51.85;101567.88;4971219;28;124697;-64
2021/10/01 04:43:18;;;;;;;2.42;0.85;;;;;;;15.56;51.69;101569.78;4956395;28;114576;-64
2021/10/01 04:46:04;;;;;;;2.92;0.80;;;;;;;15.54;51.67;101561.00;4972884;28;114701;-64
2021/10/01 04:48:32;;;;;;;3.47;1.00;;;;;;;15.52;51.82;101562.84;4955915;28;122913;-64
2021/10/01 04:50:59;;;;;;;4.13;0.98;;;;;;;15.50;51.66;101564.75;4956373;28;123108;-64
2021/10/01 04:53:26;;;;;;;3.38;0.90;;;;;;;15.49;51.77;101563.03;4956692;28;113342;-64
2021/10/01 04:55:54;;;;;;;4.22;1.02;;;;;;;15.47;51.80;101560.44;4953385;28;113494;-64
2021/10/01 04:58:21;;;;;;;3.85;1.20;;;;;;;15.47;51.80;101564.94;4955287;28;123383;-64
2021/10/01 05:01:02;;;;;;;2.05;0.80;;;;;;;15.47;51.65;101570.28;4973712;28;124280;-64
2021/10/01 05:03:48;;;;;;;3.47;0.90;;;;;;;15.47;51.77;101567.59;4971921;28;115437;-64
2021/10/01 05:06:33;;;;;;;2.78;0.90;;;;;;;15.45;51.94;101566.81;4972919;28;115207;-64
2021/10/01 05:09:26;;;;;;;2.50;1.00;;;;;;;15.43;51.84;101563.38;4971819;28;124358;-64
2021/10/01 05:12:26;;;;;;;2.97;0.82;;;;;;;15.43;51.81;101568.72;4924093;28;125260;-64
2021/10/01 05:15:12;;;;;;;3.03;1.00;;;;;;;15.41;51.80;101559.91;4960326;28;115161;-65
2021/10/01 05:17:59;;;;;;;2.47;1.00;;;;;;;15.36;51.71;101563.69;4973745;28;115302;-65
2021/10/01 05:20:44;;;;;;;1.83;0.93;;;;;;;15.35;51.88;101561.97;4974030;28;125175;-64
2021/10/01 05:23:29;;;;;;;4.70;1.20;;;;;;;15.31;51.78;101557.75;4955606;28;122941;-65
2021/10/01 05:25:57;;;;;;;1.95;1.00;;;;;;;15.28;51.73;101560.56;4939862;28;113381;-65
2021/10/01 05:28:25;;;;;;;3.33;1.00;;;;;;;15.27;51.80;101561.50;4951884;28;116542;-64
2021/10/01 05:30:52;;;;;;;2.67;1.30;;;;;;;15.26;51.88;101554.47;4952143;28;124816;-64
2021/10/01 05:33:19;;;;;;;2.72;0.90;;;;;;;15.23;51.76;101546.59;4967913;28;123941;-64
2021/10/01 05:35:47;;;;;;;3.13;0.80;;;;;;;15.23;52.02;101546.59;4972206;28;115496;-65
2021/10/01 05:38:15;;;;;;;3.53;0.90;;;;;;;15.22;51.97;101544.91;4953557;28;113988;-64
2021/10/01 05:40:42;;;;;;;3.47;1.00;;;;;;;15.23;52.12;101546.59;4944067;28;123476;-64
2021/10/01 05:43:11;;;;;;;3.22;1.00;;;;;;;15.24;52.23;101547.47;4956603;28;123060;-64
2021/10/01 05:45:40;;;;;;;2.90;0.90;;;;;;;15.24;52.16;101543.00;4951557;28;113410;-64
2021/10/01 05:48:29;;;;;;;4.03;1.00;;;;;;;15.26;52.20;101541.13;4973620;28;115236;-64
2021/10/01 05:51:14;;;;;;;2.05;1.00;;;;;;;15.28;52.05;101549.91;4959467;28;125039;-64
2021/10/01 05:54:21;;;;;;;;;;;;;;;15.28;52.18;101552.56;4958906;28;123885;-64
2021/10/01 05:57:18;;;;;;;1.38;0.77;;;;;;;15.32;52.12;101551.44;4967096;28;114389;-64
2021/10/01 05:59:56;;;;;;;4.57;1.15;;;;;;;15.36;52.17;101555.69;4954704;28;116445;-64
2021/10/01 06:02:23;;;;;;;2.47;1.00;;;;;;;15.37;52.00;101553.88;4962527;28;123039;-64
2021/10/01 06:04:52;;;;;;;2.25;0.90;;;;;;;15.38;52.05;101551.13;4953721;28;122735;-64
2021/10/01 06:07:20;;;;;;;1.83;0.73;;;;;;;15.41;51.92;101554.56;4970726;28;114366;-65
2021/10/01 06:09:47;;;;;;;3.35;0.90;;;;;;;15.43;51.90;101547.34;4955127;28;112866;-65
2021/10/01 06:12:16;;;;;;;1.85;0.73;;;;;;;15.45;52.01;101553.47;4972063;28;123934;-65
2021/10/01 06:14:44;;;;;;;2.58;0.77;;;;;;;15.46;51.93;101541.84;4969843;28;123863;-64
2021/10/01 06:17:12;;;;;;;1.85;0.70;;;;;;;15.48;51.76;101546.16;4973921;28;113878;-65
2021/10/01 06:19:42;;;;;;;2.78;0.80;;;;;;;15.50;51.76;101549.59;4966921;28;113950;-65
2021/10/01 06:22:11;;;;;;;2.17;0.90;;;;;;;15.52;51.82;101552.16;4970278;28;123970;-65
2021/10/01 06:24:39;;;;;;;3.92;0.70;;;;;;;15.53;51.71;101548.56;4954862;28;123303;-65
2021/10/01 06:27:08;;;;;;;3.75;0.80;;;;;;;15.53;51.62;101552.09;4945133;28;115569;-63
2021/10/01 06:29:36;;;;;;;2.10;0.85;;;;;;;15.55;51.81;101558.22;4950565;28;114932;-64
2021/10/01 06:32:03;;;;;;;2.50;0.82;;;;;;;15.56;51.68;101553.75;4969228;28;124897;-64
2021/10/01 06:34:31;;;;;;;2.97;0.70;;;;;;;15.58;51.75;101557.19;4970100;28;123814;-64
2021/10/01 06:36:58;;;;;;;1.83;0.88;;;;;;;15.61;51.57;101549.00;4972667;28;114733;-63
2021/10/01 06:39:25;;;;;;;4.55;0.95;;;;;;;15.65;51.66;101558.59;4969602;28;114003;-65
2021/10/01 06:41:52;;;;;;;3.20;0.63;;;;;;;15.69;51.63;101560.16;4971481;28;125004;-62
2021/10/01 06:44:26;;;;;;;4.82;0.95;;;;;;;15.73;51.68;101555.50;4969698;28;124262;-63
2021/10/01 06:47:12;;;;;;;2.33;0.90;;;;;;;15.77;51.59;101557.94;4954825;28;114612;-62
2021/10/01 06:49:55;;;;;;;3.95;0.68;;;;;;;15.81;51.48;101552.44;4970283;28;114402;-63
2021/10/01 08:20:49;;;;;;;3.65;0.90;;;;;;;17.09;50.95;101519.13;4969309;28;124066;-63
2021/10/01 08:23:16;;;;;;;2.42;1.00;;;;;;;17.15;50.73;101518.72;4973040;28;123656;-63
2021/10/01 08:25:43;;;;;;;2.72;0.90;;;;;;;17.20;50.79;101519.31;4973624;28;115272;-64
2021/10/01 08:28:10;;;;;;;2.75;1.05;;;;;;;17.25;50.70;101522.56;4972009;28;114349;-64
2021/10/01 08:30:58;;;;;;;2.28;0.90;;;;;;;17.36;50.84;101523.69;4974705;28;124584;-64
2021/10/01 08:33:26;;;;;;;3.58;0.80;;;;;;;17.43;50.52;101519.69;4955041;28;124545;-65
2021/10/01 08:35:53;;;;;;;4.38;0.90;;;;;;;17.49;50.48;101520.13;4955949;28;114522;-65
2021/10/01 08:38:20;;;;;;;3.10;1.10;;;;;;;17.57;50.56;101514.28;4971132;28;113897;-64
2021/10/01 08:40:47;;;;;;;3.20;0.82;;;;;;;17.66;50.43;101520.91;4972940;28;124995;-64
2021/10/01 08:43:15;;;;;;;1.92;0.80;;;;;;;17.74;50.28;101517.72;4972036;28;124748;-65
2021/10/01 08:45:42;;;;;;;4.38;1.00;;;;;;;17.81;50.27;101519.03;4974381;28;114513;-65
2021/10/01 08:48:11;;;;;;;4.70;1.00;;;;;;;17.88;50.25;101520.41;4955302;28;113843;-65
2021/10/01 08:50:39;;;;;;;1.55;0.85;;;;;;;17.95;50.17;101505.66;4970835;28;124455;-64
2021/10/01 08:53:09;;;;;;;4.85;1.15;;;;;;;18.01;49.95;101505.25;4955870;28;123847;-65
2021/10/01 08:55:37;;;;;;;2.22;0.90;;;;;;;18.06;49.91;101502.25;4971148;28;114091;-64
2021/10/01 08:58:04;;;;;;;2.40;0.90;;;;;;;18.11;49.97;101492.09;4971878;28;114736;-65
2021/10/01 09:00:32;;;;;;;4.10;0.93;;;;;;;18.18;49.84;101489.88;4955640;28;123987;-65
2021/10/01 09:02:59;;;;;;;2.65;0.82;;;;;;;18.25;49.86;101491.16;4956720;28;123911;-64
2021/10/01 09:05:27;;;;;;;3.13;0.90;;;;;;;18.33;49.84;101488.84;4972678;28;115279;-65
2021/10/01 09:07:54;;;;;;;3.17;0.88;;;;;;;18.42;49.79;101490.91;4971416;28;114684;-65
2021/10/01 09:10:21;;;;;;;4.00;0.80;;;;;;;18.52;49.70;101482.22;4972834;28;124478;-65
2021/10/01 09:12:53;;;;;;;4.38;1.08;;;;;;;18.61;49.55;101481.56;4968031;28;124790;-65
2021/10/01 09:15:21;;;;;;;2.53;0.68;;;;;;;18.72;49.81;101478.16;4972288;28;114179;-65
2021/10/01 09:17:58;;;;;;;4.60;0.80;;;;;;;18.83;49.64;101481.81;4956286;28;113540;-65
2021/10/01 09:20:27;;;;;;;3.05;0.77;;;;;;;18.92;49.13;101479.47;4955920;28;123214;-65
2021/10/01 09:23:27;;;;;;;1.60;0.63;;;;;;;19.00;49.06;101471.75;4954863;28;124079;-65
2021/10/01 09:26:09;;;;;;;3.88;0.73;;;;;;;19.05;49.00;101466.91;4972713;28;114237;-65
2021/10/01 09:28:56;;;;;;;1.83;0.60;;;;;;;19.12;48.90;101465.50;4970978;28;114370;-65
2021/10/01 09:31:45;;;;;;;3.55;0.90;;;;;;;19.16;48.83;101464.31;4970410;28;124636;-65
2021/10/01 09:34:23;;;;;;;5.63;0.80;;;;;;;19.22;48.51;101461.19;4964046;28;124515;-65
2021/10/01 09:37:11;;;;;;;4.00;0.80;;;;;;;19.28;48.65;101453.66;4970421;28;114825;-65
2021/10/01 09:39:50;;;;;;;3.72;0.90;;;;;;;19.35;48.43;101447.75;4970214;28;114128;-64
2021/10/01 09:42:21;;;;;;;3.88;1.00;;;;;;;19.42;48.07;101451.69;4969439;28;124073;-65
2021/10/01 09:44:57;;;;;;;2.50;0.90;;;;;;;19.48;48.05;101450.41;4960487;28;124420;-65
2021/10/01 09:47:33;;;;;;;2.70;0.90;;;;;;;19.54;48.32;101447.25;4971055;28;114323;-65
2021/10/01 09:50:14;;;;;;;2.40;0.90;;;;;;;19.61;48.14;101451.22;4970646;28;114200;-65
2021/10/01 09:52:52;;;;;;;4.53;0.90;;;;;;;19.67;47.79;101454.44;4970477;28;124405;-65
2021/10/01 09:55:30;;;;;;;2.75;0.80;;;;;;;19.68;47.87;101450.75;4961716;28;124530;-65
2021/10/01 09:58:00;;;;;;;2.95;0.90;;;;;;;19.71;47.72;101450.53;4969200;28;115312;-65
2021/10/01 10:00:46;;;;;;;4.10;1.00;;;;;;;19.72;47.81;101447.78;4972819;28;114788;-65
2021/10/01 10:03:14;;;;;;;;;;;;;;;19.73;48.16;101437.88;4971493;28;123969;-65
2021/10/01 10:05:59;;;;;;;6.68;0.80;;;;;;;19.75;47.86;101435.94;4971691;28;124884;-65
2021/10/01 10:08:38;;;;;;;2.60;0.80;;;;;;;19.75;47.77;101435.94;4958832;28;114545;-65
2021/10/01 10:11:10;;;;;;;2.03;0.90;;;;;;;19.74;47.62;101418.06;4970660;28;114297;-65
2021/10/01 10:13:39;;;;;;;2.50;0.80;;;;;;;19.77;47.74;101429.44;4967620;28;124011;-65
2021/10/01 10:16:12;;;;;;;4.00;0.90;;;;;;;19.80;47.78;101423.00;4972237;28;124798;-65
2021/10/01 10:18:39;;;;;;;3.25;0.98;;;;;;;19.85;47.80;101423.50;4969982;28;114572;-65
2021/10/01 10:21:08;;;;;;;1.90;0.80;;;;;;;19.89;47.66;101421.44;4967707;28;114297;-65
2021/10/01 10:23:36;;;;;;;2.10;1.00;;;;;;;19.95;47.57;101416.47;4969600;28;124700;-65
2021/10/01 10:26:03;;;;;;;1.98;0.75;;;;;;;20.01;47.70;101413.31;4968671;28;124539;-65
2021/10/01 10:28:33;;;;;;;3.55;1.00;;;;;;;20.09;47.62;101414.56;4970909;28;114212;-65
2021/10/01 10:31:01;;;;;;;3.40;0.68;;;;;;;20.16;47.32;101418.50;4972322;28;113993;-65
2021/10/01 10:33:45;;;;;;;3.85;0.90;;;;;;;20.22;47.16;101412.66;4969090;28;124171;-65
2021/10/01 10:36:34;;;;;;;2.53;0.60;;;;;;;20.29;46.95;101413.91;4971786;28;123924;-65
2021/10/01 10:39:10;;;;;;;2.70;0.70;;;;;;;20.36;47.09;101420.53;4959063;28;114630;-65
2021/10/01 10:42:03;;;;;;;2.47;0.70;;;;;;;20.43;46.83;101405.59;4972710;28;114284;-66
2021/10/01 10:44:45;;;;;;;2.55;0.90;;;;;;;20.53;46.50;101399.50;4952910;28;124216;-65
2021/10/01 10:47:39;;;;;;;3.03;0.90;;;;;;;20.58;46.68;101397.31;4964312;28;123976;-65
2021/10/01 10:50:21;;;;;;;2.78;0.80;;;;;;;20.65;46.43;101403.97;4971311;28;115301;-65
2021/10/01 10:53:03;;;;;;;3.30;0.90;;;;;;;20.69;46.10;101391.97;4938675;28;113902;-65
2021/10/01 10:55:33;;;;;;;2.10;0.88;;;;;;;20.74;45.99;101392.47;4969458;28;124222;-65
2021/10/01 10:58:23;;;;;;;2.70;0.80;;;;;;;20.81;46.17;101384.75;4968925;28;124237;-65
2021/10/01 11:00:55;;;;;;;2.90;0.60;;;;;;;20.89;45.99;101389.50;4969148;28;115004;-65
2021/10/01 11:03:29;;;;;;;4.53;1.05;;;;;;;20.98;45.83;101383.41;4957450;28;113619;-65
2021/10/01 11:06:08;;;;;;;3.35;0.70;;;;;;;21.06;45.64;101380.97;4970487;28;124263;-65
2021/10/01 11:08:36;;;;;;;2.53;0.70;;;;;;;21.12;45.32;101380.44;4960304;28;124347;-65
2021/10/01 11:11:05;;;;;;;2.17;0.70;;;;;;;21.18;45.31;101377.25;4968798;28;114518;-65
2021/10/01 11:13:35;;;;;;;4.40;0.90;;;;;;;21.26;45.08;101378.47;4944444;28;113756;-65
2021/10/01 11:16:08;;;;;;;2.63;0.80;;;;;;;21.31;44.88;101370.88;4953492;28;123141;-65
2021/10/01 11:18:42;;;;;;;1.83;0.80;;;;;;;21.35;44.53;101375.88;4957993;28;124210;-65
2021/10/01 11:21:25;;;;;;;2.80;0.80;;;;;;;21.38;44.86;101367.53;4950107;28;114189;-65
2021/10/01 11:24:08;;;;;;;5.00;0.90;;;;;;;21.45;44.85;101370.59;4961552;28;113937;-65
2021/10/01 11:26:47;;;;;;;2.10;0.70;;;;;;;21.53;45.03;101368.16;4974499;28;124406;-65
2021/10/01 11:29:31;;;;;;;3.72;0.70;;;;;;;21.65;44.91;101376.19;4974123;28;124176;-65
2021/10/01 11:32:05;;;;;;;3.05;0.70;;;;;;;21.72;44.08;101361.22;4956362;28;113438;-65
2021/10/01 11:34:47;;;;;;;2.72;0.93;;;;;;;21.75;44.19;101352.84;4972987;28;113935;-65
2021/10/01 11:37:31;;;;;;;2.60;0.70;;;;;;;21.77;43.64;101356.28;4971157;28;124042;-65
2021/10/01 11:40:07;;;;;;;3.42;0.90;;;;;;;21.76;43.46;101351.88;4973423;28;124123;-65
2021/10/01 11:42:39;;;;;;;3.97;0.90;;;;;;;21.75;43.35;101344.75;4971995;28;115632;-65
2021/10/01 11:45:26;;;;;;;3.78;0.90;;;;;;;21.74;43.28;101332.28;4973143;28;114978;-65
2021/10/01 11:47:54;;;;;;;2.08;0.60;;;;;;;21.72;43.16;101336.97;4973889;28;124827;-65
2021/10/01 11:50:33;;;;;;;2.65;0.80;;;;;;;21.69;43.13;101329.13;4973382;28;124197;-65
2021/10/01 11:53:02;;;;;;;3.58;0.63;;;;;;;21.67;43.01;101341.88;4975635;28;114717;-65
2021/10/01 11:55:33;;;;;;;2.20;0.70;;;;;;;21.65;43.09;101338.44;4962169;28;113719;-65
2021/10/01 11:58:13;;;;;;;2.92;0.70;;;;;;;21.65;43.28;101341.16;4972088;28;124091;-65
2021/10/01 12:00:41;;;;;;;2.40;0.80;;;;;;;21.67;43.23;101336.47;4957699;28;122843;-65
2021/10/01 12:03:13;;;;;;;2.67;0.65;;;;;;;21.67;43.03;101342.72;4972786;28;114161;-65
2021/10/01 12:05:47;;;;;;;2.65;0.90;;;;;;;21.66;43.08;101340.16;4975252;28;113795;-65
2021/10/01 12:08:19;;;;;;;1.75;0.75;;;;;;;21.67;43.16;101331.09;4968449;28;123998;-65
2021/10/01 12:10:53;;;;;;;2.95;0.70;;;;;;;21.67;42.97;101325.69;4973480;28;124030;-65
2021/10/01 12:13:33;;;;;;;2.15;0.70;;;;;;;21.68;43.39;101327.38;4964552;28;114166;-65
2021/10/01 12:16:04;;;;;;;3.97;0.70;;;;;;;21.72;43.27;101323.47;4974895;28;113840;-66
2021/10/01 12:18:44;;;;;;;2.53;0.82;;;;;;;21.75;42.96;101317.81;4971228;28;124821;-65
2021/10/01 12:21:14;;;;;;;2.03;0.85;;;;;;;21.75;42.80;101320.50;4954643;28;123131;-65
2021/10/01 12:23:47;;;;;;;2.10;0.75;;;;;;;21.75;42.48;101323.19;4961812;28;114281;-65
2021/10/01 12:26:42;;;;;;;2.08;0.80;;;;;;;21.74;42.62;101321.50;4974899;28;113813;-65
2021/10/01 12:29:24;;;;;;;2.40;0.83;;;;;;;21.75;42.85;101318.66;4955570;28;124893;-65
2021/10/01 12:31:57;;;;;;;3.25;0.70;;;;;;;21.79;42.95;101319.25;4971870;28;123752;-65
2021/10/01 12:34:31;;;;;;;4.28;0.88;;;;;;;21.82;43.00;101319.00;4974325;28;115045;-64
2021/10/01 12:36:58;;;;;;;2.90;0.73;;;;;;;21.85;42.92;101307.97;4973752;28;115276;-64
2021/10/01 12:39:27;;;;;;;2.55;0.75;;;;;;;21.91;42.69;101318.22;4969081;28;124061;-64
2021/10/01 12:42:02;;;;;;;2.80;0.70;;;;;;;21.92;42.43;101319.91;4971897;28;123748;-64
2021/10/01 12:44:37;;;;;;;3.22;0.80;;;;;;;21.94;42.39;101317.97;4971992;28;114694;-65
2021/10/01 12:47:14;;;;;;;2.42;0.80;;;;;;;21.97;42.62;101314.97;4974946;28;113723;-65
2021/10/01 12:49:55;;;;;;;3.25;0.93;;;;;;;22.03;42.54;101304.66;4958311;28;124151;-65
2021/10/01 12:52:25;;;;;;;3.03;0.82;;;;;;;22.09;42.48;101298.72;4972007;28;124056;-65
2021/10/01 12:55:01;;;;;;;2.33;0.80;;;;;;;22.14;42.38;101296.50;4971852;28;114781;-64
2021/10/01 12:57:28;;;;;;;3.47;0.80;;;;;;;22.19;42.20;101294.25;4971925;28;113836;-65
2021/10/01 13:00:01;;;;;;;2.53;0.73;;;;;;;22.21;41.87;101294.97;4970477;28;123911;-64
2021/10/01 13:02:34;;;;;;;1.75;0.77;;;;;;;22.21;41.79;101296.78;4973743;28;124225;-64
2021/10/01 13:05:24;;;;;;;2.70;0.80;;;;;;;22.17;41.99;101293.53;4973020;28;114395;-65
2021/10/01 13:08:11;;;;;;;1.98;0.77;;;;;;;22.16;41.83;101294.50;4970907;28;114005;-65
2021/10/01 13:10:38;;;;;;;3.03;0.80;;;;;;;22.15;41.66;101298.19;4971921;28;123871;-65
2021/10/01 13:13:14;;;;;;;3.97;0.88;;;;;;;22.12;41.77;101293.06;4972123;28;124397;-65
2021/10/01 13:15:47;;;;;;;3.20;0.73;;;;;;;22.10;41.53;101290.50;4956314;28;113089;-65